Terminal Aerodrome Forecast
Issued by NWS

Home | Current Version | Previous Version | Text Only | Print | Product List | Glossary On
Versions: 1 2 3 4 5 6 7 8 9 10 11 12 13 14 15 16 17 18 19 20 21 22 23 24 25 26
000
FTAK31 PANC 061128
TAFAIL
TAF
PAIL 061128Z 0612/0712 08011KT P6SM BKN035 OVC050
     FM061500 10015G24KT P6SM VCSH SCT025 OVC050
     FM062000 11018G28KT P6SM -SHRA BKN030 OVC040
     FM070600 10011G18KT P6SM -RA BKN025 OVC035=

USA.gov is the U.S. government's official web portal to all federal, state and local government web resources and services.